createdAt,value
2022-08-23T00:02:26.476Z,100.00
2022-08-23T00:05:08.381Z,100.00
2022-08-23T00:07:43.519Z,100.00
2022-08-23T00:10:13.575Z,100.00
2022-08-23T00:12:41.795Z,100.00
2022-08-23T00:15:11.144Z,100.00
2022-08-23T00:17:39.452Z,100.00
2022-08-23T00:20:08.180Z,100.00
2022-08-23T00:22:35.855Z,100.00
2022-08-23T00:25:02.556Z,100.00
2022-08-23T00:27:29.194Z,100.00
2022-08-23T00:29:57.318Z,100.00
2022-08-23T00:32:33.991Z,100.00
2022-08-23T00:35:01.583Z,100.00
2022-08-23T00:37:32.360Z,100.00
2022-08-23T00:40:00.180Z,100.00
2022-08-23T00:43:12.643Z,100.00
2022-08-23T00:46:22.730Z,100.00
2022-08-23T00:48:50.581Z,100.00
2022-08-23T00:51:23.628Z,100.00
2022-08-23T00:53:55.505Z,100.00
2022-08-23T00:56:25.204Z,100.00
2022-08-23T00:58:54.519Z,100.00
2022-08-23T01:01:24.450Z,100.00
2022-08-23T01:04:04.074Z,100.00
2022-08-23T01:06:44.428Z,100.00
2022-08-23T01:09:19.255Z,100.00
2022-08-23T01:11:52.453Z,100.00
2022-08-23T01:14:33.951Z,100.00
2022-08-23T01:17:08.531Z,100.00
2022-08-23T01:19:47.992Z,100.00
2022-08-23T01:22:26.749Z,100.00
2022-08-23T01:25:07.007Z,100.00
2022-08-23T01:27:39.697Z,100.00
2022-08-23T01:30:10.129Z,100.00
2022-08-23T01:32:47.810Z,100.00
2022-08-23T01:35:15.163Z,100.00
2022-08-23T01:37:42.428Z,100.00
2022-08-23T01:40:09.820Z,100.00
2022-08-23T01:42:36.632Z,100.00
2022-08-23T01:45:04.163Z,100.00
2022-08-23T01:47:31.853Z,100.00
2022-08-23T01:49:59.410Z,100.00
2022-08-23T01:52:26.165Z,100.00
2022-08-23T01:54:53.220Z,100.00
2022-08-23T01:57:20.292Z,100.00
2022-08-23T01:59:47.318Z,100.00
2022-08-23T02:02:14.950Z,100.00
2022-08-23T02:04:41.892Z,100.00
2022-08-23T02:07:08.632Z,100.00
2022-08-23T02:09:35.538Z,100.00
2022-08-23T02:12:03.490Z,100.00
2022-08-23T02:14:31.493Z,100.00
2022-08-23T02:17:04.046Z,100.00
2022-08-23T02:19:34.414Z,100.00
2022-08-23T02:22:03.239Z,100.00
2022-08-23T02:24:31.318Z,100.00
2022-08-23T02:27:02.554Z,100.00
2022-08-23T02:29:30.503Z,100.00
2022-08-23T02:32:00.242Z,100.00
2022-08-23T02:34:28.956Z,100.00
2022-08-23T02:36:56.134Z,100.00
2022-08-23T02:39:23.812Z,100.00
2022-08-23T02:41:51.878Z,100.00
2022-08-23T02:44:19.772Z,100.00
2022-08-23T02:46:47.393Z,100.00
2022-08-23T02:49:15.909Z,100.00
2022-08-23T02:51:43.111Z,100.00
2022-08-23T02:54:09.894Z,100.00
2022-08-23T02:56:36.728Z,100.00
2022-08-23T02:59:05.272Z,100.00
2022-08-23T03:01:36.633Z,100.00
2022-08-23T03:04:16.204Z,100.00
2022-08-23T03:06:42.911Z,100.00
2022-08-23T03:09:11.201Z,100.00
2022-08-23T03:11:38.277Z,100.00
2022-08-23T03:14:05.291Z,100.00
2022-08-23T03:16:32.283Z,100.00
2022-08-23T03:18:59.031Z,100.00
2022-08-23T03:21:25.625Z,100.00
2022-08-23T03:23:52.285Z,100.00
2022-08-23T03:26:19.753Z,100.00
2022-08-23T03:28:47.823Z,100.00
2022-08-23T03:34:03.079Z,100.00
2022-08-23T03:36:29.804Z,100.00
2022-08-23T03:38:58.442Z,100.00
2022-08-23T03:41:25.956Z,100.00
2022-08-23T03:43:52.898Z,100.00
2022-08-23T03:46:23.763Z,100.00
2022-08-23T03:49:00.266Z,100.00
2022-08-23T03:51:34.209Z,100.00
2022-08-23T03:54:02.086Z,100.00
2022-08-23T03:56:28.745Z,100.00
2022-08-23T03:58:57.008Z,100.00
2022-08-23T04:01:28.543Z,100.00
2022-08-23T04:03:58.337Z,100.00
2022-08-23T04:06:25.037Z,100.00
2022-08-23T04:08:54.598Z,100.00
2022-08-23T04:11:22.777Z,100.00
2022-08-23T04:13:56.520Z,100.00
2022-08-23T04:16:23.282Z,100.00
2022-08-23T04:18:49.990Z,100.00
2022-08-23T04:21:22.452Z,100.00
2022-08-23T04:23:49.748Z,100.00
2022-08-23T04:26:16.504Z,100.00
2022-08-23T04:28:44.597Z,100.00
2022-08-23T04:31:12.540Z,100.00
2022-08-23T04:33:42.405Z,100.00
2022-08-23T04:36:12.059Z,100.00
2022-08-23T04:38:39.439Z,100.00
2022-08-23T04:41:26.542Z,100.00
2022-08-23T04:43:56.280Z,100.00
2022-08-23T04:46:24.523Z,100.00
2022-08-23T04:48:54.026Z,100.00
2022-08-23T04:51:22.120Z,100.00
2022-08-23T04:53:48.834Z,100.00
2022-08-23T04:56:35.889Z,100.00
2022-08-23T04:59:03.251Z,100.00
2022-08-23T05:01:30.510Z,100.00
2022-08-23T05:03:57.500Z,100.00
2022-08-23T05:06:26.445Z,100.00
2022-08-23T05:08:53.361Z,100.00
2022-08-23T05:11:20.611Z,100.00
2022-08-23T05:13:48.607Z,100.00
2022-08-23T05:16:16.260Z,100.00
2022-08-23T05:18:51.629Z,100.00
2022-08-23T05:21:21.729Z,100.00
2022-08-23T05:23:50.721Z,100.00
2022-08-23T05:26:20.577Z,100.00
2022-08-23T05:28:48.961Z,100.00
2022-08-23T05:31:22.355Z,100.00
2022-08-23T05:33:55.554Z,100.00
2022-08-23T05:36:48.314Z,100.00
2022-08-23T05:39:36.458Z,100.00
2022-08-23T05:42:08.213Z,100.00
2022-08-23T05:44:36.392Z,100.00
2022-08-23T05:47:10.661Z,100.00
2022-08-23T05:49:47.541Z,100.00
2022-08-23T05:52:14.682Z,100.00
2022-08-23T05:54:43.355Z,100.00
2022-08-23T05:57:38.316Z,100.00
2022-08-23T06:00:10.465Z,100.00
2022-08-23T06:02:46.395Z,100.00
2022-08-23T06:05:13.911Z,100.00
2022-08-23T06:07:42.043Z,100.00
2022-08-23T06:10:09.821Z,100.00
2022-08-23T06:12:47.088Z,100.00
2022-08-23T06:15:14.907Z,100.00
2022-08-23T06:17:41.912Z,100.00
2022-08-23T06:20:10.324Z,100.00
2022-08-23T06:22:54.049Z,100.00
2022-08-23T06:25:20.743Z,100.00
2022-08-23T06:27:54.447Z,100.00
2022-08-23T06:30:23.299Z,100.00
2022-08-23T06:32:55.966Z,100.00
2022-08-23T06:35:38.911Z,100.00
2022-08-23T06:38:09.333Z,100.00
2022-08-23T06:40:48.037Z,100.00
2022-08-23T06:43:29.298Z,100.00
2022-08-23T06:46:23.605Z,100.00
2022-08-23T06:48:51.914Z,100.00
2022-08-23T06:51:29.109Z,100.00
2022-08-23T06:54:34.684Z,100.00
2022-08-23T06:57:32.738Z,100.00
2022-08-23T07:00:28.807Z,100.00
2022-08-23T07:03:15.842Z,100.00
2022-08-23T07:06:01.605Z,100.00
2022-08-23T07:08:31.278Z,100.00
2022-08-23T07:10:58.221Z,100.00
2022-08-23T07:13:25.189Z,100.00
2022-08-23T07:15:56.604Z,100.00
2022-08-23T07:18:23.624Z,100.00
2022-08-23T07:20:50.297Z,100.00
2022-08-23T07:23:17.540Z,100.00
2022-08-23T07:25:44.514Z,100.00
2022-08-23T07:28:15.350Z,100.00
2022-08-23T07:30:45.266Z,100.00
2022-08-23T07:33:13.141Z,100.00
2022-08-23T07:35:59.884Z,100.00
2022-08-23T07:38:30.604Z,100.00
2022-08-23T07:40:58.683Z,100.00
2022-08-23T07:43:25.651Z,100.00
2022-08-23T07:45:53.561Z,100.00
2022-08-23T07:48:43.346Z,100.00
2022-08-23T07:51:14.130Z,100.00
2022-08-23T07:53:45.810Z,100.00
2022-08-23T07:56:16.585Z,100.00
2022-08-23T07:59:05.719Z,100.00
2022-08-23T08:01:43.303Z,100.00
2022-08-23T08:04:11.412Z,100.00
2022-08-23T08:06:59.844Z,100.00
2022-08-23T08:09:33.630Z,100.00
2022-08-23T08:12:00.716Z,100.00
2022-08-23T08:14:30.306Z,100.00
2022-08-23T08:17:00.433Z,100.00
2022-08-23T08:19:47.366Z,100.00
2022-08-23T08:22:36.929Z,100.00
2022-08-23T08:25:18.964Z,100.00
2022-08-23T08:27:48.219Z,100.00
2022-08-23T08:30:14.923Z,100.00
2022-08-23T08:32:47.258Z,100.00
2022-08-23T08:35:14.443Z,100.00
2022-08-23T08:37:41.159Z,100.00
2022-08-23T08:40:09.210Z,100.00
2022-08-23T08:43:07.134Z,99.66
2022-08-23T08:46:13.653Z,100.00
2022-08-23T08:48:45.865Z,99.23
2022-08-23T08:51:43.894Z,95.72
2022-08-23T08:54:15.890Z,94.94
2022-08-23T08:56:51.285Z,98.21
2022-08-23T08:59:28.800Z,95.07
2022-08-23T09:01:57.563Z,94.07
2022-08-23T09:04:31.899Z,95.00
2022-08-23T09:07:07.240Z,94.49
2022-08-23T09:09:51.511Z,91.64
2022-08-23T09:13:03.646Z,89.70
2022-08-23T09:16:11.335Z,87.27
2022-08-23T09:18:38.275Z,86.56
2022-08-23T09:21:09.983Z,87.01
2022-08-23T09:24:00.154Z,89.38
2022-08-23T09:26:38.773Z,86.55
2022-08-23T09:29:20.866Z,83.55
2022-08-23T09:31:54.999Z,82.55
2022-08-23T09:34:36.059Z,81.98
2022-08-23T09:37:22.959Z,78.46
2022-08-23T09:39:54.207Z,77.25
2022-08-23T09:42:38.533Z,77.24
2022-08-23T09:45:35.445Z,77.40
2022-08-23T09:48:06.027Z,79.66
2022-08-23T09:50:42.132Z,74.61
2022-08-23T09:53:11.526Z,73.64
2022-08-23T09:55:42.526Z,71.12
2022-08-23T09:58:38.499Z,72.36
2022-08-23T10:01:16.410Z,75.16
2022-08-23T10:04:05.814Z,75.66
2022-08-23T10:06:35.911Z,76.80
2022-08-23T10:09:07.963Z,75.15
2022-08-23T10:11:46.788Z,75.70
2022-08-23T10:14:19.541Z,74.02
2022-08-23T10:17:15.784Z,73.04
2022-08-23T10:19:47.733Z,78.63
2022-08-23T10:22:28.503Z,74.83
2022-08-23T10:25:36.850Z,71.73
2022-08-23T10:28:44.776Z,67.98
2022-08-23T10:31:20.549Z,66.91
2022-08-23T10:33:59.274Z,66.60
2022-08-23T10:37:07.571Z,66.54
2022-08-23T10:39:43.996Z,64.90
2022-08-23T10:42:25.493Z,68.49
2022-08-23T10:45:06.282Z,67.99
2022-08-23T10:47:37.580Z,67.98
2022-08-23T10:50:20.459Z,65.95
2022-08-23T10:53:15.940Z,65.93
2022-08-23T10:56:05.845Z,66.68
2022-08-23T10:58:45.044Z,64.79
2022-08-23T11:01:52.303Z,63.99
2022-08-23T11:04:47.717Z,64.38
2022-08-23T11:07:34.261Z,65.50
2022-08-23T11:10:16.294Z,62.42
2022-08-23T11:13:10.718Z,61.65
2022-08-23T11:15:56.169Z,60.63
2022-08-23T11:18:28.984Z,61.26
2022-08-23T11:21:33.407Z,61.22
2022-08-23T11:24:04.773Z,61.54
2022-08-23T11:26:40.818Z,63.94
2022-08-23T11:29:28.575Z,64.98
2022-08-23T11:32:29.969Z,62.48
2022-08-23T11:35:08.836Z,60.42
2022-08-23T11:37:57.090Z,61.82
2022-08-23T11:40:49.491Z,56.50
2022-08-23T11:43:26.818Z,55.74
2022-08-23T11:45:54.206Z,55.82
2022-08-23T11:48:27.340Z,54.81
2022-08-23T11:51:15.938Z,55.59
2022-08-23T11:53:58.343Z,54.60
2022-08-23T11:56:46.368Z,55.07
2022-08-23T11:59:43.282Z,54.95
2022-08-23T12:02:40.504Z,56.42
2022-08-23T12:05:22.674Z,57.21
2022-08-23T12:07:54.825Z,54.54
2022-08-23T12:10:45.189Z,53.52
2022-08-23T12:13:17.898Z,53.32
2022-08-23T12:16:16.630Z,55.75
2022-08-23T12:18:47.677Z,58.12
2022-08-23T12:21:31.677Z,57.43
2022-08-23T12:24:03.401Z,55.06
2022-08-23T12:26:42.409Z,54.23
2022-08-23T12:29:32.776Z,54.29
2022-08-23T12:32:09.903Z,53.70
2022-08-23T12:35:00.902Z,52.98
2022-08-23T12:37:36.547Z,53.17
2022-08-23T12:40:09.277Z,51.77
2022-08-23T12:42:38.491Z,49.79
2022-08-23T12:45:05.260Z,50.06
2022-08-23T12:47:32.563Z,49.95
2022-08-23T12:50:15.047Z,50.35
2022-08-23T12:52:42.481Z,49.36
2022-08-23T12:55:18.373Z,47.83
2022-08-23T12:57:54.473Z,47.78
2022-08-23T13:00:26.048Z,47.40
2022-08-23T13:03:26.756Z,48.50
2022-08-23T13:05:55.468Z,48.22
2022-08-23T13:08:34.455Z,46.83
2022-08-23T13:11:07.774Z,46.61
2022-08-23T13:13:39.263Z,47.15
2022-08-23T13:16:27.433Z,46.75
2022-08-23T13:18:56.176Z,45.58
2022-08-23T13:21:22.873Z,47.01
2022-08-23T13:23:52.123Z,45.79
2022-08-23T13:26:29.278Z,44.39
2022-08-23T13:29:05.411Z,45.69
2022-08-23T13:31:52.416Z,45.42
2022-08-23T13:34:37.089Z,46.05
2022-08-23T13:37:19.908Z,45.14
2022-08-23T13:39:50.351Z,44.10
2022-08-23T13:42:50.991Z,43.58
2022-08-23T13:45:32.101Z,44.51
2022-08-23T13:48:10.285Z,43.68
2022-08-23T13:50:38.585Z,45.40
2022-08-23T13:53:15.570Z,46.08
2022-08-23T13:55:47.141Z,47.19
2022-08-23T13:58:24.669Z,50.25
2022-08-23T14:00:55.479Z,50.60
2022-08-23T14:03:23.367Z,49.17
2022-08-23T14:05:50.283Z,48.78
2022-08-23T14:08:17.237Z,47.26
2022-08-23T14:10:46.341Z,46.22
2022-08-23T14:13:15.705Z,45.69
2022-08-23T14:16:32.991Z,45.71
2022-08-23T14:18:30.803Z,45.71
2022-08-23T14:20:57.425Z,46.64
2022-08-23T14:23:24.113Z,47.24
2022-08-23T14:25:55.031Z,47.27
2022-08-23T14:28:24.954Z,47.18
2022-08-23T14:30:51.784Z,46.34
2022-08-23T14:33:20.324Z,46.86
2022-08-23T14:35:47.715Z,46.77
2022-08-23T14:38:15.332Z,46.81
2022-08-23T14:40:50.446Z,47.07
2022-08-23T14:43:17.163Z,47.79
2022-08-23T14:45:43.810Z,47.93
2022-08-23T14:48:11.602Z,48.19
2022-08-23T14:50:39.581Z,49.19
2022-08-23T14:53:06.898Z,48.30
2022-08-23T14:55:33.600Z,51.15
2022-08-23T14:58:00.278Z,50.32
2022-08-23T15:00:26.932Z,50.95
2022-08-23T15:02:53.783Z,49.62
2022-08-23T15:05:20.628Z,49.54
2022-08-23T15:07:47.259Z,49.42
2022-08-23T15:13:19.149Z,49.12
2022-08-23T15:15:49.093Z,51.18
2022-08-23T15:18:16.983Z,51.71
2022-08-23T15:20:45.261Z,50.83
2022-08-23T15:23:12.214Z,49.20
2022-08-23T15:25:41.984Z,49.72
2022-08-23T15:28:13.160Z,49.69
2022-08-23T15:30:41.538Z,49.02
2022-08-23T15:33:08.850Z,48.21
2022-08-23T15:35:41.305Z,49.62
2022-08-23T15:38:09.891Z,49.27
2022-08-23T15:40:36.904Z,49.79
2022-08-23T15:43:04.010Z,50.53
2022-08-23T15:45:32.298Z,50.26
2022-08-23T15:48:01.318Z,50.65
2022-08-23T15:50:32.559Z,50.71
2022-08-23T15:53:00.142Z,50.65
2022-08-23T15:55:31.090Z,50.44
2022-08-23T15:57:58.329Z,51.17
2022-08-23T16:00:25.821Z,50.66
2022-08-23T16:03:18.345Z,52.07
2022-08-23T16:05:44.163Z,52.29
2022-08-23T16:08:20.467Z,51.55
2022-08-23T16:10:47.376Z,50.90
2022-08-23T16:13:14.276Z,51.70
2022-08-23T16:15:40.861Z,51.48
2022-08-23T16:18:07.934Z,50.14
2022-08-23T16:20:34.648Z,50.54
2022-08-23T16:23:01.505Z,50.37
2022-08-23T16:25:28.645Z,51.43
2022-08-23T16:27:55.603Z,51.42
2022-08-23T16:30:23.865Z,51.66
2022-08-23T16:32:50.612Z,51.26
2022-08-23T16:35:18.335Z,51.40
2022-08-23T16:37:45.097Z,50.49
2022-08-23T16:40:12.977Z,50.51
2022-08-23T16:42:40.445Z,50.99
2022-08-23T16:45:08.207Z,50.38
2022-08-23T16:47:40.959Z,50.38
2022-08-23T16:50:09.280Z,50.97
2022-08-23T16:52:35.989Z,50.88
2022-08-23T16:55:09.210Z,50.80
2022-08-23T16:57:36.207Z,50.90
2022-08-23T17:00:06.834Z,51.91
2022-08-23T17:02:36.506Z,51.48
2022-08-23T17:05:05.683Z,52.25
2022-08-23T17:07:32.568Z,52.30
2022-08-23T17:09:59.271Z,52.09
2022-08-23T17:12:26.142Z,51.57
2022-08-23T17:14:54.755Z,52.22
2022-08-23T17:17:21.419Z,52.25
2022-08-23T17:19:48.171Z,52.46
2022-08-23T17:22:15.092Z,52.32
2022-08-23T17:24:41.692Z,52.75
2022-08-23T17:27:08.591Z,52.88
2022-08-23T17:29:42.779Z,52.64
2022-08-23T17:32:09.987Z,53.42
2022-08-23T17:34:38.883Z,52.59
2022-08-23T17:37:15.736Z,53.41
2022-08-23T17:39:42.789Z,54.02
2022-08-23T17:42:09.431Z,54.08
2022-08-23T17:44:36.132Z,54.98
2022-08-23T17:47:07.723Z,55.14
2022-08-23T17:49:34.664Z,54.97
2022-08-23T17:52:03.815Z,54.45
2022-08-23T17:54:30.525Z,55.63
2022-08-23T17:56:57.255Z,56.89
2022-08-23T17:59:23.977Z,56.40
2022-08-23T18:01:50.793Z,56.86
2022-08-23T18:04:18.123Z,57.55
2022-08-23T18:06:45.602Z,56.94
2022-08-23T18:09:12.582Z,58.35
2022-08-23T18:11:39.222Z,59.10
2022-08-23T18:14:06.111Z,59.82
2022-08-23T18:16:35.546Z,59.61
2022-08-23T18:19:05.219Z,62.69
2022-08-23T18:21:33.140Z,67.96
2022-08-23T18:23:59.852Z,72.93
2022-08-23T18:26:45.556Z,76.93
2022-08-23T18:29:14.552Z,80.53
2022-08-23T18:31:43.960Z,81.96
2022-08-23T18:34:13.110Z,84.36
2022-08-23T18:36:39.804Z,85.77
2022-08-23T18:39:08.389Z,87.58
2022-08-23T18:41:35.135Z,88.55
2022-08-23T18:44:05.658Z,89.59
2022-08-23T18:46:39.019Z,89.83
2022-08-23T18:49:08.754Z,92.08
2022-08-23T18:51:35.992Z,92.94
2022-08-23T18:54:03.171Z,92.36
2022-08-23T18:56:29.862Z,91.51
2022-08-23T18:58:56.531Z,94.16
2022-08-23T19:01:32.843Z,94.45
2022-08-23T19:04:01.848Z,93.79
2022-08-23T19:06:28.553Z,94.21
2022-08-23T19:08:55.955Z,95.35
2022-08-23T19:11:24.263Z,96.75
2022-08-23T19:13:51.196Z,97.53
2022-08-23T19:16:19.470Z,95.83
2022-08-23T19:18:49.747Z,99.19
2022-08-23T19:21:21.290Z,99.29
2022-08-23T19:23:50.388Z,100.00
2022-08-23T19:26:19.668Z,100.00
2022-08-23T19:28:46.843Z,100.00
2022-08-23T19:31:14.186Z,100.00
2022-08-23T19:33:41.521Z,100.00
2022-08-23T19:36:23.648Z,100.00
2022-08-23T19:38:56.765Z,100.00
2022-08-23T19:41:23.406Z,100.00
2022-08-23T19:43:50.018Z,100.00
2022-08-23T19:46:16.947Z,100.00
2022-08-23T19:48:45.768Z,100.00
2022-08-23T19:51:14.664Z,100.00
2022-08-23T19:53:42.272Z,100.00
2022-08-23T19:56:09.467Z,100.00
2022-08-23T19:58:38.237Z,100.00
2022-08-23T20:01:04.853Z,100.00
2022-08-23T20:03:31.580Z,100.00
2022-08-23T20:05:58.188Z,100.00
2022-08-23T20:08:25.567Z,100.00
2022-08-23T20:10:52.145Z,100.00
2022-08-23T20:13:21.714Z,100.00
2022-08-23T20:15:49.183Z,100.00
2022-08-23T20:18:18.082Z,100.00
2022-08-23T20:20:44.836Z,100.00
2022-08-23T20:23:31.028Z,100.00
2022-08-23T20:25:57.803Z,100.00
2022-08-23T20:28:26.404Z,100.00
2022-08-23T20:30:53.300Z,100.00
2022-08-23T20:33:19.958Z,100.00
2022-08-23T20:35:46.852Z,100.00
2022-08-23T20:38:33.299Z,100.00
2022-08-23T20:41:00.300Z,100.00
2022-08-23T20:43:30.048Z,100.00
2022-08-23T20:45:56.762Z,100.00
2022-08-23T20:48:23.417Z,100.00
2022-08-23T20:50:50.115Z,100.00
2022-08-23T20:53:16.992Z,100.00
2022-08-23T20:55:43.738Z,100.00
2022-08-23T20:58:10.464Z,100.00
2022-08-23T21:00:37.227Z,100.00
2022-08-23T21:03:04.151Z,100.00
2022-08-23T21:05:30.891Z,100.00
2022-08-23T21:07:57.641Z,100.00
2022-08-23T21:10:25.815Z,100.00
2022-08-23T21:12:52.768Z,100.00
2022-08-23T21:15:19.580Z,100.00
2022-08-23T21:17:46.746Z,100.00
2022-08-23T21:20:14.479Z,100.00
2022-08-23T21:22:41.363Z,100.00
2022-08-23T21:25:08.524Z,100.00
2022-08-23T21:27:35.401Z,100.00
2022-08-23T21:30:04.018Z,100.00
2022-08-23T21:32:30.779Z,100.00
2022-08-23T21:34:58.517Z,100.00
2022-08-23T21:37:25.979Z,100.00
2022-08-23T21:39:52.628Z,100.00
2022-08-23T21:42:23.498Z,100.00
2022-08-23T21:44:50.551Z,100.00
2022-08-23T21:47:17.668Z,100.00
2022-08-23T21:49:44.381Z,100.00
2022-08-23T21:52:10.980Z,100.00
2022-08-23T21:54:42.852Z,100.00
2022-08-23T21:57:10.474Z,100.00
2022-08-23T21:59:37.407Z,100.00
2022-08-23T22:02:04.411Z,100.00
2022-08-23T22:04:31.138Z,100.00
2022-08-23T22:07:00.065Z,100.00
2022-08-23T22:09:31.522Z,100.00
2022-08-23T22:12:00.304Z,100.00
2022-08-23T22:14:31.706Z,100.00
2022-08-23T22:16:59.215Z,100.00
2022-08-23T22:19:26.354Z,100.00
2022-08-23T22:21:53.264Z,100.00
2022-08-23T22:24:25.230Z,100.00
2022-08-23T22:26:53.525Z,100.00
2022-08-23T22:29:20.177Z,100.00
2022-08-23T22:31:48.224Z,100.00
2022-08-23T22:34:15.174Z,100.00
2022-08-23T22:36:41.998Z,100.00
2022-08-23T22:39:08.721Z,100.00
2022-08-23T22:41:35.477Z,100.00
2022-08-23T22:44:03.212Z,100.00
2022-08-23T22:46:31.897Z,100.00
2022-08-23T22:48:58.855Z,100.00
2022-08-23T22:51:32.856Z,100.00
2022-08-23T22:54:02.371Z,100.00
2022-08-23T22:56:32.436Z,100.00
2022-08-23T22:58:59.711Z,100.00
2022-08-23T23:01:34.341Z,100.00
2022-08-23T23:04:03.334Z,100.00
2022-08-23T23:06:30.441Z,100.00
2022-08-23T23:08:57.231Z,100.00
2022-08-23T23:11:24.590Z,100.00
2022-08-23T23:13:51.933Z,100.00
2022-08-23T23:16:22.651Z,100.00
2022-08-23T23:19:08.639Z,100.00
2022-08-23T23:21:55.766Z,100.00
2022-08-23T23:24:34.850Z,100.00
2022-08-23T23:27:02.564Z,100.00
2022-08-23T23:29:31.603Z,100.00
2022-08-23T23:31:58.794Z,100.00
2022-08-23T23:34:26.589Z,100.00
2022-08-23T23:36:56.086Z,100.00
2022-08-23T23:39:22.943Z,100.00
2022-08-23T23:41:49.527Z,100.00
2022-08-23T23:44:16.334Z,100.00
2022-08-23T23:46:56.302Z,100.00
2022-08-23T23:49:23.478Z,100.00
2022-08-23T23:51:56.324Z,100.00
2022-08-23T23:54:22.910Z,100.00
2022-08-23T23:56:51.201Z,100.00
2022-08-23T23:59:17.788Z,100.00
